createdAt,value
2023-04-11T00:00:46.325Z,8.05
2023-04-11T00:03:16.382Z,8.03
2023-04-11T00:05:45.978Z,8.02
2023-04-11T00:08:16.063Z,7.99
2023-04-11T00:10:45.497Z,7.96
2023-04-11T00:13:13.359Z,7.93
2023-04-11T00:15:42.652Z,7.90
2023-04-11T00:18:12.143Z,7.85
2023-04-11T00:20:43.354Z,7.83
2023-04-11T00:23:11.988Z,7.80
2023-04-11T00:25:39.373Z,7.79
2023-04-11T00:28:06.383Z,7.78
2023-04-11T00:30:33.836Z,7.78
2023-04-11T00:33:01.768Z,7.76
2023-04-11T00:35:33.988Z,7.74
2023-04-11T00:38:03.484Z,7.71
2023-04-11T00:40:32.093Z,7.68
2023-04-11T00:43:19.101Z,7.64
2023-04-11T00:45:46.479Z,7.62
2023-04-11T00:48:13.594Z,7.63
2023-04-11T00:50:41.705Z,7.63
2023-04-11T00:53:10.630Z,7.61
2023-04-11T00:55:37.840Z,7.60
2023-04-11T00:58:06.162Z,7.57
2023-04-11T01:00:35.106Z,7.54
2023-04-11T01:03:03.502Z,7.51
2023-04-11T01:05:34.405Z,7.48
2023-04-11T01:08:01.850Z,7.45
2023-04-11T01:10:31.347Z,7.42
2023-04-11T01:12:59.266Z,7.39
2023-04-11T01:15:29.067Z,7.36
2023-04-11T01:17:57.327Z,7.33
2023-04-11T01:20:25.989Z,7.30
2023-04-11T01:22:53.293Z,7.28
2023-04-11T01:25:22.838Z,7.25
2023-04-11T01:27:49.797Z,7.22
2023-04-11T01:30:17.033Z,7.18
2023-04-11T01:32:47.660Z,7.14
2023-04-11T01:35:14.811Z,7.09
2023-04-11T01:37:42.534Z,7.08
2023-04-11T01:40:10.172Z,7.05
2023-04-11T01:42:39.049Z,7.04
2023-04-11T01:45:06.952Z,7.04
2023-04-11T01:47:34.580Z,7.03
2023-04-11T01:50:03.099Z,7.00
2023-04-11T01:52:32.343Z,6.97
2023-04-11T01:55:00.543Z,6.95
2023-04-11T01:57:30.746Z,6.92
2023-04-11T02:00:01.242Z,6.89
2023-04-11T02:02:29.686Z,6.86
2023-04-11T02:04:58.046Z,6.85
2023-04-11T02:07:30.721Z,6.82
2023-04-11T02:10:00.854Z,6.81
2023-04-11T02:12:30.623Z,6.80
2023-04-11T02:14:58.870Z,6.80
2023-04-11T02:17:30.630Z,6.78
2023-04-11T02:19:59.005Z,6.76
2023-04-11T02:22:29.281Z,6.73
2023-04-11T02:24:57.103Z,6.69
2023-04-11T02:27:24.652Z,6.68
2023-04-11T02:29:54.833Z,6.65
2023-04-11T02:32:22.407Z,6.63
2023-04-11T02:34:49.462Z,6.63
2023-04-11T02:37:20.354Z,6.64
2023-04-11T02:39:48.540Z,6.65
2023-04-11T02:42:16.216Z,6.64
2023-04-11T02:44:44.354Z,6.62
2023-04-11T02:47:12.260Z,6.59
2023-04-11T02:49:42.253Z,6.57
2023-04-11T02:52:09.701Z,6.54
2023-04-11T02:54:36.690Z,6.51
2023-04-11T02:57:04.103Z,6.49
2023-04-11T02:59:31.692Z,6.48
2023-04-11T03:03:45.179Z,6.47
2023-04-11T03:06:14.600Z,6.43
2023-04-11T03:08:47.695Z,6.41
2023-04-11T03:11:17.532Z,6.39
2023-04-11T03:13:47.539Z,6.38
2023-04-11T03:16:20.536Z,6.35
2023-04-11T03:18:53.141Z,6.32
2023-04-11T03:21:23.412Z,6.31
2023-04-11T03:23:56.547Z,6.31
2023-04-11T03:26:29.092Z,6.30
2023-04-11T03:29:01.587Z,6.30
2023-04-11T03:31:34.773Z,6.31
2023-04-11T03:34:07.946Z,6.30
2023-04-11T03:36:37.698Z,6.30
2023-04-11T03:39:08.694Z,6.30
2023-04-11T03:41:38.503Z,6.29
2023-04-11T03:44:11.755Z,6.28
2023-04-11T03:46:42.159Z,6.27
2023-04-11T03:49:14.207Z,6.28
2023-04-11T03:51:43.427Z,6.30
2023-04-11T03:54:13.856Z,6.34
2023-04-11T03:56:43.362Z,6.38
2023-04-11T03:59:19.617Z,6.41
2023-04-11T04:01:54.869Z,6.43
2023-04-11T04:04:25.036Z,6.48
2023-04-11T04:07:10.174Z,6.56
2023-04-11T04:09:42.896Z,6.62
2023-04-11T04:12:13.477Z,6.70
2023-04-11T04:15:04.857Z,6.80
2023-04-11T04:17:35.092Z,6.88
2023-04-11T04:20:06.082Z,7.00
2023-04-11T04:22:41.459Z,7.12
2023-04-11T04:25:12.862Z,7.22
2023-04-11T04:27:45.101Z,7.32
2023-04-11T04:30:19.400Z,7.44
2023-04-11T04:33:05.341Z,7.57
2023-04-11T04:35:36.330Z,7.69
2023-04-11T04:38:09.336Z,7.81
2023-04-11T04:40:50.492Z,7.95
2023-04-11T04:43:23.398Z,8.08
2023-04-11T04:46:00.485Z,8.25
2023-04-11T04:48:36.622Z,8.41
2023-04-11T04:51:08.979Z,8.55
2023-04-11T04:53:48.094Z,8.68
2023-04-11T04:56:21.986Z,8.83
2023-04-11T04:58:51.212Z,8.99
2023-04-11T05:01:28.564Z,9.13
2023-04-11T05:04:02.810Z,9.31
2023-04-11T05:06:45.164Z,9.50
2023-04-11T05:09:16.892Z,9.72
2023-04-11T05:11:48.649Z,9.91
2023-04-11T05:14:18.879Z,10.13
2023-04-11T05:16:58.958Z,10.38
2023-04-11T05:19:34.481Z,10.72
2023-04-11T05:22:05.679Z,11.07
2023-04-11T05:24:37.408Z,11.40
2023-04-11T05:27:11.918Z,11.73
2023-04-11T05:29:41.236Z,11.99
2023-04-11T05:35:02.037Z,12.51
2023-04-11T05:37:44.426Z,12.66
2023-04-11T05:40:20.110Z,12.65
2023-04-11T05:42:51.002Z,12.60
2023-04-11T05:45:25.249Z,12.60
2023-04-11T05:48:00.507Z,12.74
2023-04-11T05:50:35.528Z,13.03
2023-04-11T05:53:06.953Z,13.39
2023-04-11T05:55:39.215Z,13.68
2023-04-11T05:58:11.140Z,13.90
2023-04-11T06:00:41.061Z,14.13
2023-04-11T06:03:18.623Z,14.31
2023-04-11T06:05:54.539Z,14.51
2023-04-11T06:08:26.301Z,14.66
2023-04-11T06:10:59.680Z,14.94
2023-04-11T06:13:31.328Z,15.15
2023-04-11T06:16:03.675Z,15.38
2023-04-11T06:18:33.986Z,15.64
2023-04-11T06:21:08.294Z,15.82
2023-04-11T06:23:38.027Z,16.07
2023-04-11T06:26:09.720Z,16.36
2023-04-11T06:28:40.881Z,16.47
2023-04-11T06:31:09.968Z,16.52
2023-04-11T06:33:44.224Z,16.81
2023-04-11T06:36:17.285Z,17.11
2023-04-11T06:38:46.886Z,17.34
2023-04-11T06:41:19.688Z,17.41
2023-04-11T06:43:49.666Z,17.27
2023-04-11T06:46:22.074Z,17.01
2023-04-11T06:48:51.751Z,17.08
2023-04-11T06:51:21.972Z,17.22
2023-04-11T06:53:59.989Z,17.36
2023-04-11T06:56:33.791Z,17.56
2023-04-11T06:59:05.330Z,17.67
2023-04-11T07:01:38.386Z,17.66
2023-04-11T07:04:07.720Z,17.60
2023-04-11T07:06:42.377Z,17.58
2023-04-11T07:09:16.093Z,17.60
2023-04-11T07:11:49.057Z,17.86
2023-04-11T07:14:27.771Z,18.07
2023-04-11T07:17:03.511Z,18.13
2023-04-11T07:19:33.536Z,18.21
2023-04-11T07:22:03.470Z,18.19
2023-04-11T07:24:33.083Z,18.25
2023-04-11T07:27:02.422Z,18.38
2023-04-11T07:29:37.613Z,18.46
2023-04-11T07:32:06.714Z,18.58
2023-04-11T07:34:36.084Z,18.87
2023-04-11T07:37:05.861Z,19.17
2023-04-11T07:39:35.476Z,19.37
2023-04-11T07:42:07.587Z,19.44
2023-04-11T07:44:38.485Z,19.38
2023-04-11T07:47:07.532Z,19.46
2023-04-11T07:49:37.556Z,19.58
2023-04-11T07:52:14.068Z,19.64
2023-04-11T07:54:45.316Z,19.64
2023-04-11T07:57:15.410Z,19.55
2023-04-11T07:59:52.489Z,19.55
2023-04-11T08:02:21.843Z,19.81
2023-04-11T08:04:59.795Z,19.99
2023-04-11T08:07:46.726Z,20.15
2023-04-11T08:10:17.308Z,20.24
2023-04-11T08:12:50.258Z,20.36
2023-04-11T08:15:25.662Z,20.32
2023-04-11T08:17:56.966Z,20.07
2023-04-11T08:20:25.865Z,19.74
2023-04-11T08:22:56.857Z,19.74
2023-04-11T08:25:25.842Z,19.60
2023-04-11T08:27:58.055Z,19.39
2023-04-11T08:30:30.935Z,19.11
2023-04-11T08:33:04.943Z,18.87
2023-04-11T08:35:38.115Z,18.63
2023-04-11T08:38:11.150Z,18.42
2023-04-11T08:40:39.935Z,18.30
2023-04-11T08:43:12.477Z,18.26
2023-04-11T08:45:42.215Z,18.29
2023-04-11T08:48:14.877Z,18.42
2023-04-11T08:50:44.624Z,18.69
2023-04-11T08:53:22.276Z,18.90
2023-04-11T08:55:55.241Z,19.08
2023-04-11T08:58:25.180Z,19.25
2023-04-11T09:00:59.016Z,19.48
2023-04-11T09:03:29.159Z,20.05
2023-04-11T09:06:11.309Z,20.56
2023-04-11T09:08:50.457Z,20.87
2023-04-11T09:11:25.907Z,20.93
2023-04-11T09:14:09.222Z,20.96
2023-04-11T09:16:38.598Z,21.43
2023-04-11T09:19:15.234Z,21.97
2023-04-11T09:21:51.427Z,22.22
2023-04-11T09:24:20.422Z,22.32
2023-04-11T09:26:49.057Z,22.40
2023-04-11T09:29:35.245Z,22.58
2023-04-11T09:32:06.708Z,22.59
2023-04-11T09:34:37.890Z,22.61
2023-04-11T09:37:06.983Z,22.59
2023-04-11T09:39:37.365Z,22.53
2023-04-11T09:42:26.252Z,22.68
2023-04-11T09:44:54.688Z,22.81
2023-04-11T09:47:23.769Z,22.97
2023-04-11T09:49:53.215Z,22.89
2023-04-11T09:52:22.290Z,22.62
2023-04-11T09:54:50.931Z,22.27
2023-04-11T09:57:20.879Z,21.95
2023-04-11T09:59:50.448Z,21.87
2023-04-11T10:02:19.270Z,22.08
2023-04-11T10:04:51.800Z,22.45
2023-04-11T10:07:24.576Z,22.83
2023-04-11T10:09:59.678Z,23.00
2023-04-11T10:12:35.414Z,23.04
2023-04-11T10:15:11.716Z,22.69
2023-04-11T10:17:41.431Z,22.03
2023-04-11T10:20:31.800Z,21.69
2023-04-11T10:23:01.561Z,21.68
2023-04-11T10:25:50.082Z,21.69
2023-04-11T10:28:32.960Z,21.65
2023-04-11T10:31:07.878Z,21.67
2023-04-11T10:33:38.138Z,21.69
2023-04-11T10:36:11.505Z,21.50
2023-04-11T10:38:43.869Z,21.10
2023-04-11T10:41:22.924Z,20.88
2023-04-11T10:43:52.665Z,20.85
2023-04-11T10:46:24.379Z,20.92
2023-04-11T10:49:04.698Z,21.16
2023-04-11T10:51:39.836Z,21.55
2023-04-11T10:54:26.006Z,21.84
2023-04-11T10:57:02.286Z,21.72
2023-04-11T10:59:32.442Z,21.54
2023-04-11T11:02:02.454Z,21.34
2023-04-11T11:04:35.105Z,21.10
2023-04-11T11:07:16.436Z,20.87
2023-04-11T11:09:50.953Z,20.79
2023-04-11T11:12:19.970Z,20.63
2023-04-11T11:14:50.393Z,20.16
2023-04-11T11:17:22.977Z,19.61
2023-04-11T11:19:53.616Z,19.22
2023-04-11T11:22:26.336Z,18.88
2023-04-11T11:24:54.863Z,18.58
2023-04-11T11:27:25.433Z,18.33
2023-04-11T11:29:55.568Z,18.21
2023-04-11T11:32:29.066Z,18.11
2023-04-11T11:35:00.904Z,18.02
2023-04-11T11:37:30.620Z,17.94
2023-04-11T11:39:59.268Z,17.94
2023-04-11T11:42:28.987Z,17.98
2023-04-11T11:45:20.695Z,17.99
2023-04-11T11:47:51.981Z,18.23
2023-04-11T11:50:30.010Z,18.61
2023-04-11T11:53:22.899Z,18.85
2023-04-11T11:55:53.903Z,18.97
2023-04-11T11:58:27.705Z,18.98
2023-04-11T12:00:59.708Z,18.93
2023-04-11T12:03:30.262Z,18.77
2023-04-11T12:06:01.389Z,18.63
2023-04-11T12:08:33.536Z,18.54
2023-04-11T12:11:03.208Z,18.48
2023-04-11T12:13:34.206Z,18.44
2023-04-11T12:16:05.136Z,18.38
2023-04-11T12:18:35.488Z,18.32
2023-04-11T12:21:05.041Z,18.30
2023-04-11T12:23:34.342Z,18.24
2023-04-11T12:26:04.495Z,18.12
2023-04-11T12:28:34.728Z,18.12
2023-04-11T12:31:04.297Z,18.04
2023-04-11T12:33:35.608Z,17.87
2023-04-11T12:36:09.919Z,17.81
2023-04-11T12:38:43.959Z,17.76
2023-04-11T12:41:31.797Z,17.63
2023-04-11T12:44:02.707Z,17.47
2023-04-11T12:46:31.553Z,17.41
2023-04-11T12:49:01.101Z,17.34
2023-04-11T12:51:31.624Z,17.23
2023-04-11T12:54:00.841Z,17.14
2023-04-11T12:56:35.848Z,17.16
2023-04-11T12:59:05.359Z,17.26
2023-04-11T13:01:38.119Z,17.43
2023-04-11T13:04:14.373Z,17.52
2023-04-11T13:06:44.124Z,17.43
2023-04-11T13:09:15.230Z,17.36
2023-04-11T13:12:04.208Z,17.34
2023-04-11T13:14:33.421Z,17.39
2023-04-11T13:17:10.828Z,17.37
2023-04-11T13:19:43.933Z,17.34
2023-04-11T13:22:12.616Z,17.32
2023-04-11T13:24:42.231Z,17.27
2023-04-11T13:27:11.449Z,17.15
2023-04-11T13:29:40.213Z,17.08
2023-04-11T13:32:09.589Z,17.02
2023-04-11T13:34:46.489Z,16.97
2023-04-11T13:37:16.713Z,16.99
2023-04-11T13:39:46.518Z,17.01
2023-04-11T13:42:22.044Z,17.00
2023-04-11T13:44:50.560Z,17.00
2023-04-11T13:47:19.526Z,16.96
2023-04-11T13:49:54.527Z,16.91
2023-04-11T13:52:25.544Z,16.88
2023-04-11T13:54:56.094Z,16.84
2023-04-11T13:57:29.160Z,16.83
2023-04-11T14:00:23.261Z,16.82
2023-04-11T14:03:02.805Z,16.83
2023-04-11T14:05:37.177Z,16.82
2023-04-11T14:08:08.985Z,16.79
2023-04-11T14:10:40.512Z,16.76
2023-04-11T14:13:13.126Z,16.69
2023-04-11T14:15:47.682Z,16.63
2023-04-11T14:18:19.325Z,16.54
2023-04-11T14:20:51.933Z,16.47
2023-04-11T14:23:24.464Z,16.42
2023-04-11T14:25:57.165Z,16.38
2023-04-11T14:28:33.822Z,16.37
2023-04-11T14:31:03.060Z,16.42
2023-04-11T14:33:33.571Z,16.38
2023-04-11T14:36:03.121Z,16.29
2023-04-11T14:38:36.962Z,16.18
2023-04-11T14:41:07.566Z,16.13
2023-04-11T14:43:36.323Z,16.09
2023-04-11T14:46:09.914Z,16.04
2023-04-11T14:48:39.485Z,16.00
2023-04-11T14:51:09.591Z,15.95
2023-04-11T14:53:40.311Z,15.84
2023-04-11T14:56:14.900Z,15.75
2023-04-11T14:59:02.291Z,15.66
2023-04-11T15:01:33.867Z,15.59
2023-04-11T15:04:03.785Z,15.54
2023-04-11T15:06:44.613Z,15.50
2023-04-11T15:09:14.203Z,15.46
2023-04-11T15:11:42.945Z,15.41
2023-04-11T15:14:16.308Z,15.36
2023-04-11T15:16:45.583Z,15.32
2023-04-11T15:19:17.715Z,15.30
2023-04-11T15:21:46.769Z,15.28
2023-04-11T15:24:19.573Z,15.24
2023-04-11T15:26:55.140Z,15.22
2023-04-11T15:29:24.198Z,15.19
2023-04-11T15:31:54.900Z,15.15
2023-04-11T15:34:27.205Z,15.09
2023-04-11T15:37:01.526Z,15.01
2023-04-11T15:39:30.750Z,14.95
2023-04-11T15:42:05.468Z,14.88
2023-04-11T15:44:36.892Z,14.84
2023-04-11T15:47:07.863Z,14.80
2023-04-11T15:49:42.184Z,14.76
2023-04-11T15:52:15.547Z,14.75
2023-04-11T15:54:52.084Z,14.73
2023-04-11T15:57:27.658Z,14.70
2023-04-11T15:59:59.499Z,14.67
2023-04-11T16:02:29.666Z,14.64
2023-04-11T16:05:03.739Z,14.61
2023-04-11T16:07:32.885Z,14.56
2023-04-11T16:10:03.777Z,14.52
2023-04-11T16:12:34.014Z,14.48
2023-04-11T16:15:06.382Z,14.45
2023-04-11T16:17:40.345Z,14.42
2023-04-11T16:20:12.062Z,14.38
2023-04-11T16:22:41.036Z,14.35
2023-04-11T16:25:11.653Z,14.33
2023-04-11T16:27:43.777Z,14.30
2023-04-11T16:30:14.022Z,14.26
2023-04-11T16:32:51.477Z,14.22
2023-04-11T16:35:20.058Z,14.21
2023-04-11T16:37:56.809Z,14.18
2023-04-11T16:40:27.269Z,14.15
2023-04-11T16:42:55.889Z,14.12
2023-04-11T16:45:26.249Z,14.10
2023-04-11T16:47:58.553Z,14.09
2023-04-11T16:50:28.395Z,14.05
2023-04-11T16:52:59.974Z,14.01
2023-04-11T16:55:30.530Z,13.97
2023-04-11T16:58:00.631Z,13.95
2023-04-11T17:00:30.980Z,13.93
2023-04-11T17:03:02.459Z,13.90
2023-04-11T17:05:35.281Z,13.87
2023-04-11T17:08:08.930Z,13.85
2023-04-11T17:10:38.141Z,13.82
2023-04-11T17:13:11.976Z,13.80
2023-04-11T17:15:41.809Z,13.79
2023-04-11T17:18:17.610Z,13.77
2023-04-11T17:20:53.253Z,13.74
2023-04-11T17:23:35.126Z,13.71
2023-04-11T17:26:12.918Z,13.67
2023-04-11T17:28:42.956Z,13.64
2023-04-11T17:31:19.296Z,13.61
2023-04-11T17:33:48.604Z,13.57
2023-04-11T17:36:20.324Z,13.54
2023-04-11T17:38:54.743Z,13.52
2023-04-11T17:41:25.321Z,13.49
2023-04-11T17:43:56.599Z,13.43
2023-04-11T17:46:27.331Z,13.39
2023-04-11T17:48:56.388Z,13.37
2023-04-11T17:51:28.335Z,13.34
2023-04-11T17:54:01.698Z,13.32
2023-04-11T17:56:31.628Z,13.30
2023-04-11T17:59:00.350Z,13.29
2023-04-11T18:01:33.634Z,13.28
2023-04-11T18:04:07.857Z,13.24
2023-04-11T18:06:36.741Z,13.21
2023-04-11T18:09:09.612Z,13.17
2023-04-11T18:11:39.558Z,13.12
2023-04-11T18:14:08.884Z,13.09
2023-04-11T18:16:43.352Z,13.10
2023-04-11T18:19:19.240Z,13.07
2023-04-11T18:21:58.512Z,13.04
2023-04-11T18:24:32.479Z,13.02
2023-04-11T18:27:05.287Z,12.99
2023-04-11T18:29:36.062Z,12.98
2023-04-11T18:32:07.045Z,12.96
2023-04-11T18:34:36.901Z,12.94
2023-04-11T18:37:05.445Z,12.93
2023-04-11T18:39:35.855Z,12.93
2023-04-11T18:42:06.637Z,12.93
2023-04-11T18:44:36.628Z,12.94
2023-04-11T18:47:06.862Z,12.96
2023-04-11T18:49:41.674Z,12.99
2023-04-11T18:52:12.476Z,13.01
2023-04-11T18:54:47.245Z,13.00
2023-04-11T18:57:16.003Z,12.99
2023-04-11T18:59:49.792Z,12.98
2023-04-11T19:02:22.266Z,12.97
2023-04-11T19:04:55.522Z,12.95
2023-04-11T19:07:31.342Z,12.94
2023-04-11T19:10:18.916Z,12.95
2023-04-11T19:12:48.942Z,12.95
2023-04-11T19:15:21.239Z,12.95
2023-04-11T19:17:49.997Z,12.95
2023-04-11T19:20:19.407Z,12.94
2023-04-11T19:22:57.963Z,12.94
2023-04-11T19:25:26.558Z,12.94
2023-04-11T19:27:59.911Z,12.92
2023-04-11T19:30:35.754Z,12.91
2023-04-11T19:33:07.271Z,12.88
2023-04-11T19:35:37.626Z,12.87
2023-04-11T19:38:07.622Z,12.86
2023-04-11T19:40:42.071Z,12.85
2023-04-11T19:43:11.424Z,12.83
2023-04-11T19:45:43.518Z,12.80
2023-04-11T19:48:14.951Z,12.78
2023-04-11T19:50:45.332Z,12.76
2023-04-11T19:53:15.523Z,12.74
2023-04-11T19:55:46.056Z,12.74
2023-04-11T19:58:14.672Z,12.73
2023-04-11T20:00:46.109Z,12.73
2023-04-11T20:03:18.222Z,12.75
2023-04-11T20:05:48.720Z,12.76
2023-04-11T20:08:19.500Z,12.77
2023-04-11T20:10:52.259Z,12.77
2023-04-11T20:13:34.826Z,12.74
2023-04-11T20:16:10.093Z,12.71
2023-04-11T20:18:44.437Z,12.67
2023-04-11T20:21:19.477Z,12.63
2023-04-11T20:23:51.815Z,12.59
2023-04-11T20:26:22.574Z,12.55
2023-04-11T20:28:51.423Z,12.52
2023-04-11T20:31:21.032Z,12.49
2023-04-11T20:33:49.547Z,12.47
2023-04-11T20:36:23.859Z,12.45
2023-04-11T20:39:02.304Z,12.42
2023-04-11T20:41:32.458Z,12.38
2023-04-11T20:44:01.661Z,12.32
2023-04-11T20:46:39.934Z,12.26
2023-04-11T20:49:09.152Z,12.22
2023-04-11T20:51:42.855Z,12.21
2023-04-11T20:54:11.596Z,12.21
2023-04-11T20:56:40.283Z,12.20
2023-04-11T20:59:15.127Z,12.19
2023-04-11T21:01:44.227Z,12.15
2023-04-11T21:04:18.725Z,12.09
2023-04-11T21:06:50.223Z,12.04
2023-04-11T21:09:22.197Z,12.00
2023-04-11T21:11:51.134Z,11.97
2023-04-11T21:14:21.292Z,11.94
2023-04-11T21:16:50.948Z,11.93
2023-04-11T21:19:19.478Z,11.93
2023-04-11T21:21:55.240Z,11.94
2023-04-11T21:24:23.891Z,11.93
2023-04-11T21:26:53.327Z,11.92
2023-04-11T21:29:27.541Z,11.88
2023-04-11T21:31:59.813Z,11.86
2023-04-11T21:34:29.537Z,11.87
2023-04-11T21:37:00.153Z,11.88
2023-04-11T21:39:33.046Z,11.89
2023-04-11T21:42:02.598Z,11.91
2023-04-11T21:44:31.199Z,11.92
2023-04-11T21:47:00.216Z,11.95
2023-04-11T21:49:28.765Z,11.97
2023-04-11T21:52:02.039Z,11.94
2023-04-11T21:54:30.795Z,11.92
2023-04-11T21:56:59.157Z,11.92
2023-04-11T21:59:35.188Z,11.91
2023-04-11T22:02:03.962Z,11.90
2023-04-11T22:04:39.030Z,11.87
2023-04-11T22:07:15.800Z,11.82
2023-04-11T22:09:46.501Z,11.75
2023-04-11T22:12:17.869Z,11.67
2023-04-11T22:14:53.092Z,11.63
2023-04-11T22:17:22.876Z,11.60
2023-04-11T22:19:51.978Z,11.59
2023-04-11T22:22:23.432Z,11.57
2023-04-11T22:24:53.721Z,11.56
2023-04-11T22:27:22.639Z,11.55
2023-04-11T22:29:56.277Z,11.52
2023-04-11T22:32:24.895Z,11.50
2023-04-11T22:34:54.682Z,11.47
2023-04-11T22:37:23.157Z,11.45
2023-04-11T22:39:52.222Z,11.40
2023-04-11T22:42:21.293Z,11.35
2023-04-11T22:44:50.273Z,11.31
2023-04-11T22:47:22.052Z,11.27
2023-04-11T22:49:52.574Z,11.25
2023-04-11T22:52:26.334Z,11.22
2023-04-11T22:54:55.485Z,11.18
2023-04-11T22:57:23.950Z,11.14
2023-04-11T22:59:58.182Z,11.11
2023-04-11T23:02:31.884Z,11.07
2023-04-11T23:05:02.930Z,11.03
2023-04-11T23:07:33.227Z,10.97
2023-04-11T23:10:05.403Z,10.92
2023-04-11T23:12:41.881Z,10.88
2023-04-11T23:15:11.478Z,10.83
2023-04-11T23:17:42.850Z,10.79
2023-04-11T23:20:22.916Z,10.71
2023-04-11T23:22:54.007Z,10.64
2023-04-11T23:25:23.028Z,10.57
2023-04-11T23:27:55.262Z,10.53
2023-04-11T23:30:25.204Z,10.47
2023-04-11T23:33:09.578Z,10.45
2023-04-11T23:35:42.260Z,10.45
2023-04-11T23:38:12.117Z,10.46
2023-04-11T23:40:42.692Z,10.46
2023-04-11T23:43:13.012Z,10.45
2023-04-11T23:45:41.873Z,10.42
2023-04-11T23:48:10.245Z,10.41
2023-04-11T23:50:40.220Z,10.41
2023-04-11T23:53:09.625Z,10.41
2023-04-11T23:55:40.864Z,10.42
2023-04-11T23:58:10.733Z,10.44
